Time;durP1;ratioP1;P1;durP2;ratioP2;P2;SDS_P1;SDS_P2;PMS_P1;PMS_P2;Temp;Humidity;BMP_temperature;BMP_pressure;BME280_temperature;BME280_humidity;BME280_pressure;Samples;Min_cycle;Max_cycle;Signal;HPM_P1;HPM_P2
2021/05/31 00:01:07;;;;;;;5.93;5.13;;;9.20;67.50;;;8.56;53.90;95559.06;5071498;28;20657;-79
2021/05/31 00:03:33;;;;;;;6.45;4.88;;;9.20;67.60;;;8.58;53.09;95557.09;5061595;28;20225;-79
2021/05/31 00:05:59;;;;;;;5.50;4.97;;;9.20;67.70;;;8.55;54.08;95550.38;5030653;28;20206;-79
2021/05/31 00:08:26;;;;;;;6.03;5.13;;;9.20;67.70;;;8.52;55.52;95548.13;4946922;28;20243;-79
2021/05/31 00:10:53;;;;;;;6.75;5.72;;;9.20;68.40;;;8.58;56.19;95551.84;4853516;29;20310;-79
2021/05/31 00:13:20;;;;;;;8.35;6.22;;;9.20;68.90;;;8.58;55.98;95552.69;4742840;29;20585;-79
2021/05/31 00:16:56;;;;;;;6.38;5.55;;;9.20;69.20;;;8.60;55.74;95549.91;5129405;27;20962;-80
2021/05/31 00:19:23;;;;;;;5.75;4.70;;;9.20;69.00;;;8.63;54.55;95546.97;5074387;28;20227;-80
2021/05/31 00:21:50;;;;;;;5.35;4.85;;;9.20;68.60;;;8.61;53.31;95552.34;5051260;28;20562;-81
2021/05/31 00:24:18;;;;;;;5.30;4.50;;;9.20;68.30;;;8.59;53.11;95536.03;5047481;28;20261;-79
2021/05/31 00:26:46;;;;;;;5.07;4.18;;;9.20;68.10;;;8.53;52.61;95534.03;5036744;28;20301;-80
2021/05/31 00:29:13;;;;;;;4.82;4.00;;;9.20;67.70;;;8.48;52.13;95531.94;4942193;28;20228;-80
2021/05/31 00:31:40;;;;;;;5.05;4.25;;;9.10;67.50;;;8.43;51.86;95546.44;4883787;29;20210;-79
2021/05/31 00:34:06;;;;;;;5.43;4.13;;;9.10;67.40;;;8.34;52.07;95533.34;4762434;29;20704;-80
2021/05/31 00:38:23;;;;;;;7.15;4.40;;;9.10;67.30;;;8.21;53.78;95527.78;5137632;27;20661;-77
2021/05/31 00:40:49;;;;;;;6.40;5.05;;;9.10;67.60;;;8.13;55.22;95530.38;5059451;28;20290;-80
2021/05/31 00:43:16;;;;;;;8.13;6.22;;;9.00;68.20;;;8.08;56.32;95530.88;5051570;28;20314;-80
2021/05/31 00:45:43;;;;;;;7.40;6.03;;;8.90;68.70;;;8.02;56.58;95528.91;5030141;28;20218;-79
2021/05/31 00:48:11;;;;;;;6.97;6.03;;;8.90;69.00;;;7.99;57.76;95531.84;5008501;28;20231;-79
2021/05/31 00:50:37;;;;;;;7.43;6.30;;;8.90;69.60;;;8.02;57.76;95531.53;4920414;28;20219;-79
2021/05/31 00:53:05;;;;;;;8.23;6.32;;;8.80;69.80;;;8.01;58.26;95522.06;4899725;29;20222;-79
2021/05/31 00:55:32;;;;;;;8.15;6.70;;;8.80;70.30;;;8.02;58.03;95521.09;4718394;29;21015;-79
2021/05/31 01:00:19;;;;;;;9.27;7.28;;;8.80;70.50;;;8.02;59.01;95515.84;5150123;27;20605;-80
2021/05/31 01:02:46;;;;;;;9.07;6.97;;;8.80;70.90;;;8.01;58.59;95520.25;5100576;28;20262;-80
2021/05/31 01:05:13;;;;;;;8.60;7.10;;;8.70;70.70;;;7.99;59.00;95514.34;5110535;27;20213;-79
2021/05/31 01:07:50;;;;;;;9.20;7.22;;;8.70;70.90;;;7.98;59.03;95515.38;5110868;28;20586;-79
2021/05/31 01:10:44;;;;;;;11.30;7.40;;;8.70;71.50;;;7.99;59.04;95521.38;5040381;28;20589;-80
2021/05/31 01:14:08;;;;;;;10.00;7.47;;;8.70;71.40;;;7.96;59.15;95514.69;5010580;28;20734;-78
2021/05/31 01:16:48;;;;;;;9.15;7.45;;;8.70;71.30;;;8.00;58.37;95517.81;4783087;29;20219;-79
2021/05/31 01:21:36;;;;;;;9.05;7.32;;;8.70;71.40;;;7.95;58.77;95509.63;5150475;27;20639;-79
2021/05/31 01:24:46;;;;;;;9.25;7.10;;;8.70;71.60;;;7.94;58.52;95515.84;5076273;28;21294;-79
2021/05/31 01:27:19;;;;;;;9.23;7.00;;;8.70;71.50;;;7.95;59.06;95514.88;5053300;28;20194;-82
2021/05/31 01:30:06;;;;;;;8.93;7.30;;;8.70;71.60;;;7.95;59.08;95514.88;5040809;28;20717;-79
2021/05/31 01:32:52;;;;;;;8.98;7.18;;;8.70;71.60;;;7.92;58.31;95513.41;5010100;28;20241;-80
2021/05/31 01:35:28;;;;;;;9.65;7.55;;;8.60;71.20;;;7.88;58.60;95512.06;4917193;28;20212;-78
2021/05/31 01:37:57;;;;;;;9.38;7.35;;;8.60;71.50;;;7.89;58.85;95515.50;4751941;29;22870;-80
2021/05/31 01:43:00;;;;;;;12.65;7.82;;;8.60;71.70;;;7.92;59.66;95515.16;5123321;27;20587;-80
2021/05/31 01:45:29;;;;;;;9.20;7.15;;;8.60;72.00;;;7.91;59.10;95513.53;5066668;28;20198;-79
2021/05/31 01:47:57;;;;;;;10.48;7.70;;;8.60;71.90;;;7.87;59.48;95507.00;5038847;28;20598;-79
2021/05/31 01:50:27;;;;;;;9.23;7.80;;;8.60;72.10;;;7.84;59.33;95505.53;4989372;28;20219;-78
2021/05/31 01:52:56;;;;;;;10.65;8.10;;;8.60;72.10;;;7.82;60.08;95499.63;5008543;28;20319;-79
2021/05/31 01:55:24;;;;;;;12.43;9.10;;;8.60;72.40;;;7.81;61.44;95511.06;4990080;28;20215;-80
2021/05/31 01:57:53;;;;;;;10.70;8.63;;;8.60;72.70;;;7.81;61.32;95505.84;4890719;28;21958;-79
2021/05/31 02:00:20;;;;;;;11.15;8.93;;;8.50;73.10;;;7.82;61.27;95505.69;4756404;29;20223;-79
2021/05/31 02:02:57;;;;;;;9.43;7.95;;;8.50;73.20;;;7.80;60.56;95499.81;5144311;27;20327;-79
2021/05/31 02:05:26;;;;;;;11.48;8.75;;;8.60;73.10;;;7.79;60.71;95499.97;5123369;28;20605;-79
2021/05/31 02:07:52;;;;;;;11.45;8.38;;;8.50;72.80;;;7.75;60.99;95498.66;5104071;28;20233;-82
2021/05/31 02:10:19;;;;;;;11.68;8.82;;;8.50;73.20;;;7.73;62.14;95500.63;5056967;28;20200;-79
2021/05/31 02:12:57;;;;;;;12.40;9.60;;;8.50;73.50;;;7.73;61.63;95503.22;5041966;28;20240;-79
2021/05/31 02:15:36;;;;;;;13.23;9.18;;;8.50;73.90;;;7.70;62.18;95499.13;4960337;28;20597;-79
2021/05/31 02:18:37;;;;;;;13.10;9.23;;;8.40;74.20;;;7.66;62.85;95498.63;4811873;29;20686;-78
2021/05/31 02:21:18;;;;;;;12.98;9.80;;;8.40;74.80;;;7.59;63.25;95496.81;5150339;27;20621;-78
2021/05/31 02:23:45;;;;;;;13.25;9.65;;;8.40;74.80;;;7.58;63.25;95496.00;5087249;28;20641;-80
2021/05/31 02:26:19;;;;;;;11.20;8.60;;;8.40;74.80;;;7.59;62.80;95499.41;5085539;28;20261;-80
2021/05/31 02:28:48;;;;;;;11.98;9.18;;;8.30;74.70;;;7.55;63.28;95492.91;5061160;28;20232;-79
2021/05/31 02:31:18;;;;;;;13.50;9.43;;;8.30;74.70;;;7.52;63.28;95492.22;4995548;28;20212;-80
2021/05/31 02:33:48;;;;;;;14.50;9.82;;;8.30;74.70;;;7.47;64.07;95484.06;4929343;29;20236;-80
2021/05/31 02:36:16;;;;;;;12.93;9.52;;;8.30;75.00;;;7.50;64.11;95482.91;4791220;29;20558;-79
2021/05/31 02:38:44;;;;;;;14.05;10.05;;;8.30;75.00;;;7.48;64.62;95477.88;4727903;29;20239;-79
2021/05/31 02:43:03;;;;;;;13.07;9.10;;;8.30;75.20;;;7.45;64.07;95482.59;5145651;27;20538;-79
2021/05/31 02:45:31;;;;;;;15.57;10.43;;;8.20;75.30;;;7.44;64.73;95484.34;5037742;28;20217;-82
2021/05/31 02:47:59;;;;;;;13.40;10.40;;;8.20;76.50;;;7.42;64.92;95478.50;5060606;28;20247;-81
2021/05/31 02:50:28;;;;;;;12.10;9.40;;;8.20;76.00;;;7.49;64.23;95492.53;5008439;28;20252;-81
2021/05/31 02:52:56;;;;;;;15.55;10.10;;;8.20;75.90;;;7.46;64.79;95479.00;5031183;28;20220;-81
2021/05/31 02:55:26;;;;;;;13.73;9.60;;;8.20;76.10;;;7.45;64.24;95482.59;4943096;28;20216;-81
2021/05/31 02:57:53;;;;;;;13.15;9.95;;;8.20;76.00;;;7.45;64.80;95486.00;4854550;29;20234;-81
2021/05/31 03:00:25;;;;;;;14.20;10.27;;;8.20;76.20;;;7.44;64.82;95492.19;4793701;29;23835;-80
2021/05/31 03:05:29;;;;;;;14.35;10.40;;;8.10;76.20;;;7.42;65.17;95488.94;5129124;27;20563;-81
2021/05/31 03:07:58;;;;;;;14.65;10.38;;;8.10;77.30;;;7.42;65.29;95494.16;5083475;28;20262;-81
2021/05/31 03:10:26;;;;;;;14.50;10.10;;;8.10;76.60;;;7.42;65.53;95488.09;5079659;28;20285;-81
2021/05/31 03:12:53;;;;;;;13.20;9.80;;;8.20;76.70;;;7.43;65.43;95484.53;5086594;28;20246;-81
2021/05/31 03:15:22;;;;;;;16.25;10.88;;;8.10;76.80;;;7.45;65.52;95487.81;5062751;28;20216;-81
2021/05/31 03:17:50;;;;;;;14.55;10.48;;;8.10;76.90;;;7.46;65.60;95490.25;5015140;28;20229;-79
2021/05/31 03:20:22;;;;;;;13.00;9.68;;;8.10;76.90;;;7.48;65.05;95483.09;4961874;28;20294;-79
2021/05/31 03:22:49;;;;;;;17.88;10.50;;;8.20;77.00;;;7.49;65.05;95479.47;4737212;29;20233;-81
2021/05/31 03:25:27;;;;;;;16.13;11.02;;;8.20;77.00;;;7.49;65.35;95481.28;5150047;27;20383;-81
2021/05/31 03:27:55;;;;;;;13.80;10.23;;;8.20;76.90;;;7.49;65.23;95486.50;5087956;28;20232;-81
2021/05/31 03:30:22;;;;;;;13.48;10.20;;;8.20;77.00;;;7.47;65.21;95480.63;5078221;28;20258;-79
2021/05/31 03:32:49;;;;;;;12.75;9.80;;;8.20;76.90;;;7.48;64.87;95483.09;5099372;28;20234;-79
2021/05/31 03:35:16;;;;;;;14.63;10.25;;;8.20;76.90;;;7.49;64.76;95486.50;5018098;28;20197;-79
2021/05/31 03:37:44;;;;;;;15.88;10.43;;;8.20;76.90;;;7.50;64.89;95486.34;4980395;28;20210;-80
2021/05/31 03:40:15;;;;;;;16.27;10.52;;;8.20;76.90;;;7.51;64.70;95485.38;4856963;29;20677;-79
2021/05/31 03:42:43;;;;;;;13.15;9.77;;;8.20;76.90;;;7.51;65.38;95477.53;4642502;30;20689;-79
2021/05/31 03:47:38;;;;;;;13.57;10.55;;;8.20;76.90;;;7.57;64.98;95470.88;5148632;27;20639;-80
2021/05/31 03:50:06;;;;;;;13.07;9.75;;;8.20;76.90;;;7.58;64.68;95466.44;5091191;28;20301;-80
2021/05/31 03:52:33;;;;;;;13.75;10.15;;;8.20;76.90;;;7.64;65.04;95478.88;5041445;28;20240;-79
2021/05/31 03:55:00;;;;;;;14.65;10.05;;;8.30;77.10;;;7.65;65.55;95475.28;4996925;28;20211;-81
2021/05/31 03:57:29;;;;;;;15.00;11.10;;;8.30;77.40;;;7.71;65.04;95468.63;4996603;28;20208;-77
2021/05/31 03:59:56;;;;;;;13.57;10.57;;;8.30;77.30;;;7.77;65.21;95465.38;4877860;29;20647;-79
2021/05/31 04:02:23;;;;;;;15.05;10.75;;;8.30;77.40;;;7.79;65.62;95469.44;4843210;29;20246;-79
2021/05/31 04:04:52;;;;;;;13.48;10.48;;;8.40;77.50;;;7.82;65.20;95463.09;4752506;29;20409;-79
2021/05/31 04:11:51;;;;;;;13.93;9.80;;;8.50;77.50;;;7.92;65.38;95463.78;5102407;28;20272;-81
2021/05/31 04:14:20;;;;;;;16.38;11.45;;;8.50;77.40;;;7.99;64.94;95463.91;5056228;28;20229;-81
2021/05/31 04:16:50;;;;;;;12.20;10.18;;;8.50;77.50;;;8.06;65.11;95471.94;4999394;28;20210;-79
2021/05/31 04:19:21;;;;;;;14.13;11.18;;;8.60;77.70;;;8.11;65.10;95461.81;4961231;28;20245;-78
2021/05/31 04:21:51;;;;;;;13.23;10.40;;;8.70;77.80;;;8.17;65.01;95467.19;4882573;28;20222;-79
2021/05/31 04:24:19;;;;;;;13.40;10.90;;;8.70;77.80;;;8.29;64.97;95467.69;4881532;29;20689;-81
2021/05/31 04:26:47;;;;;;;13.98;10.90;;;8.70;78.60;;;8.37;64.84;95477.31;4748060;29;20281;-81
2021/05/31 04:29:25;;;;;;;12.80;9.30;;;8.80;77.80;;;8.46;64.08;95465.09;5113556;27;20329;-79
2021/05/31 04:31:51;;;;;;;13.30;10.35;;;8.90;77.60;;;8.55;64.30;95464.09;5107787;28;20258;-79
2021/05/31 04:34:18;;;;;;;14.02;9.82;;;8.90;77.50;;;8.65;64.08;95475.22;5070995;28;20237;-80
2021/05/31 04:36:45;;;;;;;14.32;10.60;;;9.10;77.60;;;8.73;64.22;95471.78;5052785;28;20223;-79
2021/05/31 04:39:12;;;;;;;12.98;10.23;;;9.10;77.50;;;8.81;64.23;95469.16;5010789;28;20228;-80
2021/05/31 04:41:39;;;;;;;12.48;9.15;;;9.20;77.50;;;8.88;63.58;95471.91;4960344;28;20211;-80
2021/05/31 04:44:06;;;;;;;12.90;9.70;;;9.20;77.30;;;8.94;63.33;95465.19;4901554;28;20286;-81
2021/05/31 04:46:34;;;;;;;12.13;8.77;;;9.30;77.30;;;9.02;63.05;95469.56;4786756;29;20217;-79
2021/05/31 04:50:36;;;;;;;13.57;9.57;;;9.40;77.10;;;9.04;62.99;95462.38;5150423;27;20960;-80
2021/05/31 04:53:08;;;;;;;11.82;9.45;;;9.40;76.60;;;9.00;62.60;95463.72;5109478;27;20251;-82
2021/05/31 04:55:37;;;;;;;11.90;9.07;;;9.50;76.50;;;9.08;62.21;95474.13;5087396;28;20648;-81
2021/05/31 04:58:03;;;;;;;14.15;9.30;;;9.50;76.40;;;9.10;63.03;95467.75;5074121;28;20237;-79
2021/05/31 05:00:30;;;;;;;11.55;9.48;;;9.50;76.40;;;9.15;62.88;95467.25;4979559;28;20734;-79
2021/05/31 05:02:57;;;;;;;11.90;9.07;;;9.60;76.60;;;9.18;62.62;95468.69;4898998;29;20262;-80
2021/05/31 05:05:25;;;;;;;10.93;9.15;;;9.60;76.60;;;9.16;62.69;95458.41;4834215;29;20212;-80
2021/05/31 05:07:52;;;;;;;12.45;10.07;;;9.60;76.40;;;9.24;62.59;95458.38;4639932;30;20236;-80
2021/05/31 05:11:47;;;;;;;11.90;9.93;;;9.80;76.60;;;9.26;62.55;95472.13;5148627;27;20964;-79
2021/05/31 05:14:14;;;;;;;14.73;10.43;;;9.70;76.50;;;9.25;62.73;95457.41;5094478;28;20225;-80
2021/05/31 05:16:41;;;;;;;13.23;9.75;;;9.80;76.50;;;9.31;62.40;95468.16;5103804;28;20664;-80
2021/05/31 05:19:09;;;;;;;12.55;9.57;;;9.80;76.50;;;9.36;62.51;95460.63;5061751;28;20241;-80
2021/05/31 05:21:36;;;;;;;13.23;9.85;;;9.90;76.50;;;9.41;62.30;95460.91;4994235;28;20288;-82
2021/05/31 05:24:04;;;;;;;12.75;9.27;;;9.80;76.40;;;9.43;62.27;95458.94;4941959;28;20233;-82
2021/05/31 05:26:30;;;;;;;11.80;8.75;;;9.80;76.30;;;9.50;61.56;95462.53;4844193;29;20675;-81
2021/05/31 05:28:57;;;;;;;12.38;9.18;;;9.90;76.20;;;9.56;61.71;95467.06;4706119;30;20231;-82
2021/05/31 05:33:14;;;;;;;10.90;8.65;;;9.90;76.20;;;9.68;61.29;95457.03;5143647;27;20673;-83
2021/05/31 05:35:44;;;;;;;10.10;8.18;;;10.00;74.80;;;9.75;61.40;95468.44;5086537;28;20213;-81
2021/05/31 05:41:05;;;;;;;10.77;8.82;;;10.20;74.70;;;9.92;60.86;95470.97;5082733;28;20684;-81
2021/05/31 05:46:23;;;;;;;10.75;8.15;;;10.20;74.70;;;10.08;60.33;95464.78;4961697;28;20575;-80
2021/05/31 05:48:52;;;;;;;10.80;8.07;;;10.30;74.80;;;10.15;60.57;95462.28;4822997;29;20314;-79
2021/05/31 05:51:21;;;;;;;11.65;8.55;;;10.40;74.90;;;10.22;61.00;95463.22;4804198;29;20666;-80
2021/05/31 05:55:40;;;;;;;10.45;8.18;;;10.40;74.90;;;10.37;60.74;95460.66;5133037;27;20565;-79
2021/05/31 05:58:07;;;;;;;11.20;8.30;;;10.60;75.00;;;10.48;60.13;95468.09;5091475;28;20227;-79
2021/05/31 06:00:34;;;;;;;9.80;7.55;;;10.70;75.00;;;10.64;60.43;95471.59;5081588;28;20207;-80
2021/05/31 06:03:02;;;;;;;9.00;7.70;;;10.70;75.00;;;10.79;60.41;95466.34;5042244;28;20239;-80
2021/05/31 06:05:29;;;;;;;10.05;7.53;;;10.90;75.20;;;10.93;60.51;95465.56;4989704;28;20207;-80
2021/05/31 06:07:56;;;;;;;8.13;6.32;;;10.90;75.20;;;11.06;60.06;95459.69;4918806;29;20717;-80
2021/05/31 06:10:23;;;;;;;8.38;6.95;;;11.10;75.30;;;11.28;60.04;95471.09;4877328;29;20223;-80
2021/05/31 06:12:50;;;;;;;7.53;6.30;;;11.20;75.40;;;11.45;59.83;95463.00;4732826;29;20304;-80
2021/05/31 06:17:21;;;;;;;6.80;5.90;;;11.30;75.50;;;11.72;59.62;95456.25;5150388;27;20632;-81
2021/05/31 06:19:48;;;;;;;7.10;5.60;;;11.60;75.70;;;11.91;59.26;95454.81;5088412;27;20219;-81
2021/05/31 06:22:15;;;;;;;7.13;5.57;;;11.80;75.30;;;12.06;58.88;95457.44;5125056;27;20209;-80
2021/05/31 06:24:43;;;;;;;5.90;5.30;;;11.90;75.10;;;12.20;58.50;95449.69;5082836;28;20210;-80
2021/05/31 06:27:10;;;;;;;7.07;5.10;;;12.00;75.00;;;12.36;58.32;95459.94;5037334;28;20202;-80
2021/05/31 06:29:37;;;;;;;5.47;4.88;;;12.10;75.00;;;12.53;58.20;95457.03;4968426;28;20238;-80
2021/05/31 06:32:04;;;;;;;6.88;5.30;;;12.30;74.70;;;12.67;58.14;95463.22;4829777;29;20574;-80
2021/05/31 06:34:31;;;;;;;6.05;4.75;;;12.40;74.70;;;12.80;57.91;95456.25;4750545;29;20503;-80
2021/05/31 06:38:18;;;;;;;5.85;5.20;;;12.50;74.40;;;12.95;57.25;95448.22;5142295;27;20652;-80
2021/05/31 06:40:50;;;;;;;5.70;5.18;;;12.80;74.30;;;13.08;57.32;95455.38;5063986;28;20312;-81
2021/05/31 06:43:16;;;;;;;5.85;5.20;;;12.90;74.00;;;13.22;57.37;95455.44;5036397;28;20220;-80
2021/05/31 06:45:43;;;;;;;6.20;5.10;;;13.00;73.90;;;13.34;57.18;95453.09;5027610;28;20215;-81
2021/05/31 06:48:10;;;;;;;5.70;5.10;;;13.10;73.60;;;13.41;56.87;95448.69;4977250;28;20227;-80
2021/05/31 06:50:38;;;;;;;6.18;5.40;;;13.20;73.70;;;13.54;56.66;95450.59;4902424;29;20218;-84
2021/05/31 06:53:05;;;;;;;6.70;5.10;;;13.30;73.50;;;13.66;56.77;95446.38;4911421;29;20398;-80
2021/05/31 06:55:33;;;;;;;5.78;4.72;;;13.40;73.50;;;13.76;56.61;95435.44;4708443;29;20215;-81
2021/05/31 06:59:45;;;;;;;5.00;4.22;;;13.50;73.50;;;13.98;56.64;95438.75;5119314;27;20662;-81
2021/05/31 07:02:11;;;;;;;5.72;4.43;;;13.70;73.20;;;14.09;56.27;95442.63;5106650;28;20655;-80
2021/05/31 07:04:38;;;;;;;4.82;3.88;;;13.90;73.10;;;14.24;56.14;95437.97;5106378;28;20225;-80
2021/05/31 07:07:04;;;;;;;7.20;4.28;;;14.00;73.00;;;14.39;55.95;95442.22;5060632;28;20206;-80
2021/05/31 07:09:31;;;;;;;5.28;4.22;;;14.10;73.00;;;14.46;55.83;95429.84;5008073;28;20256;-80
2021/05/31 07:11:57;;;;;;;5.50;4.25;;;14.20;72.80;;;14.61;55.33;95431.47;4947698;28;20207;-81
2021/05/31 07:14:32;;;;;;;5.10;4.32;;;14.30;72.60;;;14.76;55.26;95424.19;4854158;29;20240;-81
2021/05/31 07:17:00;;;;;;;4.80;4.22;;;14.40;72.40;;;14.92;55.12;95432.72;4626744;30;20236;-80
2021/05/31 07:21:58;;;;;;;5.90;4.90;;;14.60;72.50;;;15.20;55.02;95427.16;5150460;27;20630;-80
2021/05/31 07:24:25;;;;;;;5.43;4.90;;;14.90;72.60;;;15.35;54.58;95427.69;5095032;28;20225;-81
2021/05/31 07:26:53;;;;;;;6.28;4.57;;;15.00;73.00;;;15.46;54.35;95431.50;5049056;28;20248;-81
2021/05/31 07:29:20;;;;;;;5.15;4.63;;;15.10;71.80;;;15.56;54.15;95423.13;5050592;28;20635;-81
2021/05/31 07:31:47;;;;;;;5.63;4.43;;;15.30;71.60;;;15.73;53.73;95420.00;5007921;28;20245;-80
2021/05/31 07:34:14;;;;;;;5.00;4.30;;;15.30;71.50;;;15.91;54.01;95420.13;5013666;28;20277;-81
2021/05/31 07:36:41;;;;;;;4.78;4.15;;;15.40;71.50;;;16.11;53.66;95417.38;4850828;29;20295;-81
2021/05/31 07:39:10;;;;;;;5.88;4.78;;;15.60;71.50;;;16.40;53.56;95420.41;4647839;30;20260;-81
2021/05/31 07:43:52;;;;;;;4.30;3.90;;;15.80;71.60;;;16.99;53.48;95409.56;5138218;27;20655;-80
2021/05/31 07:46:19;;;;;;;5.65;4.05;;;16.20;72.00;;;17.33;52.66;95414.47;5083810;28;20543;-81
2021/05/31 07:48:46;;;;;;;4.38;3.97;;;16.40;71.90;;;17.65;52.97;95407.16;5059318;28;20241;-82
2021/05/31 07:51:20;;;;;;;5.72;3.90;;;16.70;71.80;;;17.96;51.69;95415.16;5021553;28;20299;-80
2021/05/31 07:53:53;;;;;;;4.93;4.00;;;16.90;70.70;;;18.21;51.44;95409.66;4974405;28;20238;-80
2021/05/31 07:56:25;;;;;;;4.63;4.22;;;17.30;70.50;;;18.44;51.22;95408.09;4904046;29;20223;-80
2021/05/31 07:58:55;;;;;;;5.03;4.60;;;17.50;70.50;;;18.66;51.21;95408.34;4743559;29;20244;-80
2021/05/31 08:01:24;;;;;;;4.65;4.22;;;17.80;70.30;;;18.80;50.42;95403.63;4541364;30;20701;-80
2021/05/31 08:05:22;;;;;;;4.90;4.07;;;18.00;70.10;;;18.92;50.45;95396.50;5145099;27;21150;-80
2021/05/31 08:07:50;;;;;;;4.90;4.40;;;18.20;69.50;;;18.93;50.19;95392.78;5087668;28;20220;-81
2021/05/31 08:10:17;;;;;;;4.90;4.30;;;18.40;69.00;;;18.98;50.12;95387.59;5106842;28;20235;-80
2021/05/31 08:12:51;;;;;;;5.45;4.30;;;18.50;68.90;;;18.98;49.75;95395.56;5068673;28;20230;-81
2021/05/31 08:15:19;;;;;;;5.10;4.60;;;18.60;68.30;;;18.93;48.82;95394.63;4986392;28;20257;-81
2021/05/31 08:17:46;;;;;;;4.47;4.00;;;18.70;67.70;;;18.89;49.52;95386.28;4933851;28;20217;-81
2021/05/31 08:20:14;;;;;;;5.07;4.15;;;18.70;67.70;;;18.85;48.84;95395.75;4827320;29;20210;-81
2021/05/31 08:22:45;;;;;;;4.22;3.83;;;18.70;67.30;;;18.74;49.26;95400.03;4679430;30;20589;-80
2021/05/31 08:25:18;;;;;;;5.72;4.03;;;18.80;67.30;;;18.66;49.03;95400.38;5123542;27;20380;-80
2021/05/31 08:27:46;;;;;;;4.28;3.88;;;18.70;66.70;;;18.52;49.04;95399.81;5086833;28;20197;-80
2021/05/31 08:30:15;;;;;;;4.90;3.85;;;18.60;66.80;;;18.37;49.16;95405.53;5086220;28;20232;-81
2021/05/31 08:32:42;;;;;;;5.38;4.32;;;18.60;66.40;;;18.18;49.48;95405.63;5049890;28;20240;-81
2021/05/31 08:35:10;;;;;;;6.25;4.38;;;18.50;66.50;;;17.95;49.10;95401.06;5038186;28;20199;-82
2021/05/31 08:37:37;;;;;;;4.35;3.92;;;18.30;66.30;;;17.77;49.00;95402.72;5011257;28;20220;-81
2021/05/31 08:40:06;;;;;;;4.97;3.88;;;18.20;66.10;;;17.58;49.50;95401.94;4917473;28;20269;-81
2021/05/31 08:42:39;;;;;;;4.88;3.88;;;18.00;66.80;;;17.40;49.14;95412.56;4616435;30;20226;-81
2021/05/31 08:45:24;;;;;;;4.38;3.97;;;17.90;66.10;;;17.24;49.97;95419.28;5150396;27;20708;-82
2021/05/31 08:47:53;;;;;;;4.50;3.78;;;17.70;66.50;;;17.09;49.82;95427.59;5083778;28;20225;-81
2021/05/31 08:50:34;;;;;;;4.45;4.05;;;17.50;66.60;;;16.95;50.27;95433.03;5067299;28;20220;-82
2021/05/31 08:53:02;;;;;;;4.05;3.65;;;17.40;66.70;;;16.83;50.02;95423.31;4976606;28;20228;-82
2021/05/31 08:55:29;;;;;;;4.65;4.25;;;17.30;66.80;;;16.69;50.44;95428.75;4980080;28;20210;-82
2021/05/31 08:57:58;;;;;;;4.72;4.28;;;17.20;67.10;;;16.60;50.73;95433.50;4961601;28;20729;-81
2021/05/31 09:00:35;;;;;;;4.57;4.13;;;17.00;67.00;;;16.53;50.56;95429.28;4865817;29;20201;-81
2021/05/31 09:03:06;;;;;;;6.53;4.88;;;16.90;67.20;;;16.47;50.74;95428.31;4582688;30;20766;-80
2021/05/31 09:05:46;;;;;;;4.93;4.45;;;16.80;67.30;;;16.42;51.09;95428.97;5145839;27;20307;-81
2021/05/31 09:08:19;;;;;;;5.15;4.35;;;16.70;67.40;;;16.46;50.75;95432.78;5108367;28;20228;-80
2021/05/31 09:10:55;;;;;;;4.45;4.05;;;16.70;67.60;;;16.52;50.82;95428.47;5101694;28;20198;-81
2021/05/31 09:13:34;;;;;;;5.60;5.03;;;16.60;67.70;;;16.62;50.90;95431.47;5025153;28;20236;-82
2021/05/31 09:16:18;;;;;;;5.40;4.90;;;16.60;67.80;;;16.74;50.83;95428.09;4974325;28;20261;-81
2021/05/31 09:18:55;;;;;;;5.75;5.00;;;16.60;68.20;;;16.88;50.66;95423.47;4860860;29;20788;-81
2021/05/31 09:21:32;;;;;;;4.88;4.40;;;16.70;67.70;;;16.99;50.04;95420.16;4731731;29;20212;-81
2021/05/31 09:24:18;;;;;;;4.80;4.38;;;16.80;67.70;;;17.17;50.40;95429.13;5134624;27;20576;-82
2021/05/31 09:26:49;;;;;;;4.93;4.03;;;16.90;68.10;;;17.32;49.77;95415.50;5078039;28;20206;-82
2021/05/31 09:29:18;;;;;;;5.00;4.55;;;17.10;68.10;;;17.50;49.74;95420.00;5082758;28;20214;-82
2021/05/31 09:31:45;;;;;;;7.13;5.15;;;17.20;67.80;;;17.64;49.11;95415.31;5059202;28;20207;-80
2021/05/31 09:34:13;;;;;;;5.95;5.10;;;17.30;67.60;;;17.70;49.08;95403.81;5019143;28;20224;-80
2021/05/31 09:36:55;;;;;;;5.35;4.07;;;17.50;67.60;;;17.83;49.13;95408.13;4986003;28;20916;-81
2021/05/31 09:39:35;;;;;;;4.75;4.35;;;17.50;66.90;;;17.94;48.64;95396.75;4928560;28;20223;-81
2021/05/31 09:42:17;;;;;;;4.20;3.80;;;17.60;66.70;;;18.04;48.06;95386.44;4728802;29;20232;-81
2021/05/31 09:45:07;;;;;;;4.10;3.47;;;17.80;66.40;;;18.19;47.90;95387.88;5130692;27;20357;-82
2021/05/31 09:47:36;;;;;;;6.35;3.50;;;17.80;66.00;;;18.37;47.26;95382.47;5066225;28;20209;-82
2021/05/31 09:50:06;;;;;;;4.55;4.15;;;17.90;66.40;;;18.62;45.52;95392.06;5087382;27;20204;-82
2021/05/31 09:52:35;;;;;;;4.60;4.20;;;18.10;65.70;;;18.78;46.02;95387.91;5067060;28;20262;-80
2021/05/31 09:55:06;;;;;;;4.20;3.80;;;18.20;65.70;;;19.04;45.96;95388.47;5020517;28;20236;-81
2021/05/31 09:57:35;;;;;;;3.85;3.53;;;18.40;65.60;;;19.29;46.30;95384.75;4932881;28;20407;-81
2021/05/31 10:00:16;;;;;;;4.13;3.30;;;18.50;65.70;;;19.59;46.44;95384.56;4880321;29;20258;-81
2021/05/31 10:03:00;;;;;;;4.72;3.55;;;18.70;65.60;;;19.91;46.02;95380.59;4676606;29;20224;-81
2021/05/31 10:10:43;;;;;;;4.22;3.63;;;19.50;65.80;;;20.70;45.33;95374.44;5054538;28;20202;-81
2021/05/31 10:13:10;;;;;;;4.45;3.40;;;19.70;65.30;;;20.79;43.73;95382.88;5017705;28;20232;-81
2021/05/31 10:15:40;;;;;;;5.03;3.53;;;19.90;64.20;;;20.72;43.37;95374.22;4965102;28;20249;-80
2021/05/31 10:18:15;;;;;;;3.50;3.20;;;20.00;63.50;;;20.70;43.26;95377.13;4818947;29;20236;-81
2021/05/31 10:20:44;;;;;;;3.20;2.90;;;20.20;63.60;;;20.72;43.87;95379.56;4733787;29;20303;-83
2021/05/31 10:23:14;;;;;;;3.70;3.25;;;20.20;63.70;;;20.81;43.83;95377.28;4585583;30;20250;-81
2021/05/31 10:25:58;;;;;;;3.38;2.97;;;20.30;63.70;;;20.97;43.84;95365.78;5126492;27;20313;-81
2021/05/31 10:28:39;;;;;;;3.67;3.38;;;20.40;63.80;;;21.18;44.13;95360.69;5051192;28;20326;-81
2021/05/31 10:31:09;;;;;;;3.58;3.28;;;20.50;63.90;;;21.37;43.39;95353.19;5037308;28;20204;-80
2021/05/31 10:33:41;;;;;;;3.30;3.00;;;20.70;64.00;;;21.66;44.45;95345.00;5009180;28;20649;-81
2021/05/31 10:36:35;;;;;;;3.40;3.10;;;20.90;65.10;;;22.03;43.40;95342.44;4961811;28;20220;-79
2021/05/31 10:39:04;;;;;;;3.50;3.20;;;21.10;64.30;;;22.35;43.23;95338.94;4809946;29;20239;-80
2021/05/31 10:41:33;;;;;;;5.88;3.20;;;21.40;64.00;;;22.64;42.67;95337.81;4693968;29;20291;-80
2021/05/31 10:46:36;;;;;;;5.32;3.20;;;21.60;63.80;;;23.08;42.35;95331.38;5142895;27;20634;-80
2021/05/31 10:49:05;;;;;;;3.53;3.22;;;22.20;62.90;;;23.21;41.61;95340.84;5062773;28;20228;-81
2021/05/31 10:51:38;;;;;;;3.75;3.25;;;22.40;62.50;;;23.17;40.92;95337.88;5085847;28;20216;-82
2021/05/31 10:54:18;;;;;;;5.32;2.92;;;22.50;61.60;;;23.07;41.02;95338.63;5050573;28;20700;-82
2021/05/31 10:56:47;;;;;;;3.20;2.90;;;22.60;61.40;;;22.94;41.44;95331.06;4931531;28;20276;-81
2021/05/31 10:59:22;;;;;;;3.42;2.80;;;22.60;61.50;;;22.91;40.95;95332.38;4879230;29;20246;-82
2021/05/31 11:01:49;;;;;;;3.47;2.85;;;22.70;61.30;;;22.83;40.85;95332.88;4732503;30;20579;-80
2021/05/31 11:04:29;;;;;;;4.22;3.03;;;22.60;60.80;;;22.70;40.86;95331.44;5116095;27;20585;-81
2021/05/31 11:07:01;;;;;;;2.97;2.70;;;22.60;60.70;;;22.61;41.13;95336.47;5106013;28;20205;-81
2021/05/31 11:09:34;;;;;;;3.72;3.28;;;22.50;60.70;;;22.56;40.80;95333.78;5083093;28;20227;-80
2021/05/31 11:12:04;;;;;;;3.20;2.90;;;22.40;60.60;;;22.58;40.94;95334.31;5027810;28;20230;-81
2021/05/31 11:14:45;;;;;;;2.97;2.78;;;22.40;60.60;;;22.54;40.49;95336.72;4955181;28;20724;-81
2021/05/31 11:17:17;;;;;;;3.40;3.10;;;22.40;60.30;;;22.53;40.65;95334.28;4792986;29;20247;-80
2021/05/31 11:19:50;;;;;;;3.20;2.88;;;22.30;60.10;;;22.51;41.12;95329.19;4663015;30;20244;-82
2021/05/31 11:25:05;;;;;;;3.20;2.90;;;22.30;60.30;;;22.49;39.83;95331.31;5148712;27;20620;-81
2021/05/31 11:27:39;;;;;;;3.30;3.00;;;22.30;59.80;;;22.45;39.56;95329.41;5090598;28;20246;-82
2021/05/31 11:30:10;;;;;;;3.03;2.72;;;22.20;59.20;;;22.41;39.71;95314.94;5040951;28;20268;-82
2021/05/31 11:32:37;;;;;;;2.88;2.67;;;22.20;59.40;;;22.48;40.48;95323.56;5071912;28;20201;-82